Aérodrome :
LOGIN :

S'inscrire | Disclaimer

   EN    FR    IT 

 










Légende :    VFR   VFR Marginal   IFR   IFR Intensif   IFR Très Intensif
Visi : 
Plafond : 
>= 8 km
>= 3000ft
5 à 8 km
1000 à 3000 ft
1500m à 5 km
500 à 1000 ft
800 à 1500m
200 à 500 ft
< 800m
< 200 ft
Symboles :   Orages  Brouillard  Fortes neiges  Fortes précipitations  Vent > 20 kt
SIGMETs :   Divers  Orages  Givrage  Turbulence  Onde Orograph.  Cendres Volcan.






- Altitude de l'aérodrome : 23 ft
- Code IATA : XFW


EDHI - Hamburg Finkenwerder

DERNIER METAR :
  • 151750Z 08009KT 040V110 9000 OVC012 07/05 Q1004

METARs EXPIRÉS :
  • 151720Z 08007KT 050V110 8000 OVC011 07/05 Q1004
  • 151650Z 09006KT 050V130 8000 OVC010 07/05 Q1004
  • 151620Z 08007KT 050V110 7000 BKN009 OVC016 07/05 Q1004
  • 151550Z 08006KT 040V110 6000 OVC008 07/05 Q1005
  • 151520Z 08007KT 050V120 5000 -DZ BR OVC009 06/05 Q1005
  • 151450Z 08009KT 040V110 7000 OVC009 06/04 Q1005

TAF TAF EDHI
Valide du 15 à 18h jusqu'au 15 à 21h UTC


151700Z 1518/1521 08007KT 7000 BKN010
PROB30
TEMPO 1518/1521 SCT010 BKN030



MET'MAP, la Météo Aéronautique d'un coup d'oeil ! - Copyright ORBIFLY Décembre 2007 - Disclaimer

ORBIFLY MET'MAP TEAM :

Programmation & Développement : Alexandra Zaïnal
Conception & Développement : Baudouin d'Aumeries
Co-Programmation & Développement : Marc-Olivier Méhu
Soutien technique & logistique : Manuel Goepfert

Contact : metmap@orbifly.com




SOURCES & CREDITS :

   NOAA